createdAt,value
2019-03-16T00:01:13.621Z,1.30
2019-03-16T00:06:16.325Z,1.00
2019-03-16T00:11:19.051Z,1.03
2019-03-16T00:16:21.769Z,1.50
2019-03-16T00:21:24.503Z,1.77
2019-03-16T00:26:27.205Z,1.23
2019-03-16T00:31:29.903Z,1.27
2019-03-16T00:36:32.603Z,1.30
2019-03-16T00:41:35.297Z,1.07
2019-03-16T00:46:37.995Z,1.30
2019-03-16T00:51:40.685Z,1.80
2019-03-16T00:56:43.408Z,1.30
2019-03-16T01:01:46.345Z,1.00
2019-03-16T01:06:49.597Z,0.90
2019-03-16T01:11:52.702Z,1.00
2019-03-16T01:16:56.029Z,1.27
2019-03-16T01:21:59.293Z,1.00
2019-03-16T01:27:02.435Z,1.60
2019-03-16T01:32:05.887Z,1.20
2019-03-16T01:37:09.137Z,1.40
2019-03-16T01:42:12.521Z,1.10
2019-03-16T01:47:15.971Z,0.97
2019-03-16T01:52:19.084Z,1.13
2019-03-16T01:57:22.378Z,1.33
2019-03-16T02:02:25.643Z,0.90
2019-03-16T02:07:28.563Z,1.33
2019-03-16T02:12:31.567Z,1.00
2019-03-16T02:17:34.744Z,1.83
2019-03-16T02:22:38.079Z,1.30
2019-03-16T02:27:40.845Z,2.00
2019-03-16T02:32:43.536Z,1.20
2019-03-16T02:37:46.245Z,1.17
2019-03-16T02:42:48.993Z,1.30
2019-03-16T02:47:51.698Z,1.10
2019-03-16T02:52:54.388Z,1.00
2019-03-16T02:57:57.108Z,1.07
2019-03-16T03:02:59.820Z,1.07
2019-03-16T03:08:02.537Z,1.57
2019-03-16T03:13:05.244Z,1.30
2019-03-16T03:18:07.940Z,1.03
2019-03-16T03:23:10.637Z,1.37
2019-03-16T03:28:13.339Z,1.63
2019-03-16T03:33:16.051Z,1.50
2019-03-16T03:38:18.748Z,2.97
2019-03-16T03:43:21.450Z,1.67
2019-03-16T03:48:24.169Z,2.23
2019-03-16T03:53:26.894Z,1.23
2019-03-16T03:58:29.589Z,1.07
2019-03-16T04:03:32.346Z,0.93
2019-03-16T04:08:35.110Z,1.00
2019-03-16T04:13:37.822Z,1.53
2019-03-16T04:18:40.598Z,1.30
2019-03-16T04:23:43.309Z,1.10
2019-03-16T04:28:46.036Z,1.37
2019-03-16T04:33:48.740Z,1.50
2019-03-16T04:38:51.464Z,1.40
2019-03-16T04:43:54.189Z,1.50
2019-03-16T04:48:56.901Z,1.20
2019-03-16T04:53:59.627Z,1.30
2019-03-16T04:59:02.308Z,0.83
2019-03-16T05:04:05.083Z,1.20
2019-03-16T05:09:07.796Z,0.90
2019-03-16T05:14:11.004Z,1.20
2019-03-16T05:19:14.155Z,1.20
2019-03-16T05:24:17.583Z,1.13
2019-03-16T05:29:20.413Z,0.80
2019-03-16T05:34:23.105Z,1.23
2019-03-16T05:39:25.822Z,1.60
2019-03-16T05:44:28.570Z,1.20
2019-03-16T05:49:31.276Z,1.23
2019-03-16T05:54:34.080Z,0.80
2019-03-16T05:59:36.794Z,0.70
2019-03-16T06:04:39.609Z,0.60
2019-03-16T06:09:42.343Z,0.80
2019-03-16T06:14:45.048Z,0.90
2019-03-16T06:19:47.748Z,1.00
2019-03-16T06:24:50.460Z,1.00
2019-03-16T06:29:53.159Z,1.20
2019-03-16T06:34:55.870Z,0.93
2019-03-16T06:39:58.588Z,0.80
2019-03-16T06:45:01.320Z,1.30
2019-03-16T06:50:05.808Z,1.17
2019-03-16T06:55:08.635Z,1.03
2019-03-16T07:00:11.424Z,0.93
2019-03-16T07:05:14.202Z,1.07
2019-03-16T07:10:17.028Z,0.70
2019-03-16T07:15:19.751Z,0.83
2019-03-16T07:20:22.449Z,0.90
2019-03-16T07:25:25.965Z,1.03
2019-03-16T07:30:28.772Z,1.00
2019-03-16T07:35:31.578Z,1.23
2019-03-16T07:40:34.367Z,1.00
2019-03-16T07:45:37.116Z,1.43
2019-03-16T07:50:39.844Z,1.10
2019-03-16T07:55:42.624Z,0.63
2019-03-16T08:00:45.439Z,1.10
2019-03-16T08:05:48.256Z,1.57
2019-03-16T08:10:50.975Z,0.93
2019-03-16T08:15:53.755Z,1.13
2019-03-16T08:20:56.455Z,0.97
2019-03-16T08:25:59.181Z,1.20
2019-03-16T08:31:01.905Z,1.60
2019-03-16T08:36:04.638Z,1.50
2019-03-16T08:41:07.524Z,1.10
2019-03-16T08:46:10.405Z,0.90
2019-03-16T08:51:13.112Z,0.83
2019-03-16T08:56:15.816Z,1.17
2019-03-16T09:01:18.530Z,1.40
2019-03-16T09:06:21.231Z,1.03
2019-03-16T09:11:23.941Z,1.30
2019-03-16T09:16:26.665Z,1.10
2019-03-16T09:21:29.358Z,1.07
2019-03-16T09:26:32.085Z,1.27
2019-03-16T09:31:34.787Z,1.10
2019-03-16T09:36:37.510Z,1.30
2019-03-16T09:41:40.225Z,1.50
2019-03-16T09:46:42.956Z,1.87
2019-03-16T09:51:45.672Z,1.30
2019-03-16T09:57:00.162Z,1.40
2019-03-16T10:01:52.987Z,1.70
2019-03-16T10:06:55.699Z,2.03
2019-03-16T10:11:58.395Z,2.20
2019-03-16T10:17:01.192Z,2.43
2019-03-16T10:22:03.899Z,1.90
2019-03-16T10:27:06.678Z,1.73
2019-03-16T10:32:09.376Z,1.57
2019-03-16T10:37:12.101Z,2.00
2019-03-16T10:42:14.799Z,2.10
2019-03-16T10:47:17.634Z,1.90
2019-03-16T10:52:20.392Z,2.00
2019-03-16T10:57:23.158Z,2.67
2019-03-16T11:02:25.945Z,2.83
2019-03-16T11:07:28.663Z,2.50
2019-03-16T11:12:31.387Z,2.30
2019-03-16T11:17:34.083Z,3.03
2019-03-16T11:22:36.790Z,3.53
2019-03-16T11:27:39.571Z,4.50
2019-03-16T11:32:42.557Z,5.00
2019-03-16T11:37:45.368Z,5.90
2019-03-16T11:42:48.071Z,5.53
2019-03-16T11:47:50.790Z,5.17
2019-03-16T11:52:53.533Z,5.00
2019-03-16T11:57:56.399Z,4.13
2019-03-16T12:02:59.133Z,2.83
2019-03-16T12:08:01.854Z,2.90
2019-03-16T12:13:16.501Z,2.40
2019-03-16T12:18:09.254Z,2.03
2019-03-16T12:23:12.007Z,2.10
2019-03-16T12:28:15.208Z,1.77
2019-03-16T12:33:17.973Z,2.10
2019-03-16T12:38:20.688Z,2.20
2019-03-16T12:43:23.407Z,1.70
2019-03-16T12:48:26.104Z,1.80
2019-03-16T12:53:28.827Z,2.20
2019-03-16T12:58:31.581Z,2.00
2019-03-16T13:03:34.290Z,2.40
2019-03-16T13:08:37.015Z,2.17
2019-03-16T13:13:39.832Z,2.30
2019-03-16T13:18:42.540Z,3.10
2019-03-16T13:23:45.384Z,2.30
2019-03-16T13:28:48.093Z,2.60
2019-03-16T13:33:53.324Z,2.60
2019-03-16T13:38:55.507Z,2.13
2019-03-16T13:43:58.741Z,2.00
2019-03-16T13:49:01.528Z,2.40
2019-03-16T13:54:04.480Z,2.10
2019-03-16T13:59:07.383Z,1.90
2019-03-16T14:04:10.297Z,1.93
2019-03-16T14:09:13.096Z,1.83
2019-03-16T14:14:15.804Z,2.00
2019-03-16T14:19:18.510Z,1.57
2019-03-16T14:24:21.234Z,1.93
2019-03-16T14:29:24.020Z,1.83
2019-03-16T14:34:26.790Z,2.47
2019-03-16T14:39:29.502Z,1.90
2019-03-16T14:44:32.305Z,1.90
2019-03-16T14:49:35.040Z,1.80
2019-03-16T14:54:38.079Z,1.97
2019-03-16T14:59:40.800Z,1.93
2019-03-16T15:04:43.517Z,1.93
2019-03-16T15:09:46.236Z,2.20
2019-03-16T15:14:48.952Z,1.63
2019-03-16T15:19:51.679Z,2.50
2019-03-16T15:24:54.387Z,2.70
2019-03-16T15:29:57.132Z,3.17
2019-03-16T15:34:59.828Z,2.97
2019-03-16T15:40:02.594Z,2.63
2019-03-16T15:45:09.341Z,2.63
2019-03-16T15:50:12.168Z,2.53
2019-03-16T15:55:15.081Z,3.30
2019-03-16T16:00:18.227Z,3.30
2019-03-16T16:05:21.219Z,3.40
2019-03-16T16:10:23.903Z,3.70
2019-03-16T16:15:26.612Z,3.33
2019-03-16T16:20:29.321Z,3.47
2019-03-16T16:25:32.062Z,3.80
2019-03-16T16:30:34.819Z,3.07
2019-03-16T16:35:37.598Z,2.73
2019-03-16T16:40:40.314Z,2.60
2019-03-16T16:45:43.087Z,2.53
2019-03-16T16:50:46.065Z,2.70
2019-03-16T16:55:49.006Z,2.60
2019-03-16T17:00:52.221Z,2.83
2019-03-16T17:05:55.205Z,2.00
2019-03-16T17:10:58.003Z,1.23
2019-03-16T17:16:01.365Z,1.70
2019-03-16T17:21:04.424Z,1.43
2019-03-16T17:26:07.274Z,1.80
2019-03-16T17:31:12.535Z,1.70
2019-03-16T17:36:15.881Z,2.20
2019-03-16T17:41:18.713Z,2.47
2019-03-16T17:46:21.484Z,2.60
2019-03-16T17:51:24.201Z,2.00
2019-03-16T17:56:26.928Z,1.77
2019-03-16T18:01:29.640Z,1.73
2019-03-16T18:06:32.334Z,2.20
2019-03-16T18:11:35.031Z,1.70
2019-03-16T18:16:37.767Z,2.17
2019-03-16T18:21:40.491Z,2.00
2019-03-16T18:26:43.305Z,3.10
2019-03-16T18:31:46.032Z,2.00
2019-03-16T18:36:48.728Z,2.50
2019-03-16T18:41:51.426Z,2.20
2019-03-16T18:46:54.139Z,2.23
2019-03-16T18:51:56.951Z,2.00
2019-03-16T18:56:59.690Z,1.83
2019-03-16T19:02:02.411Z,1.80
2019-03-16T19:07:05.291Z,2.33
2019-03-16T19:12:08.140Z,1.70
2019-03-16T19:17:10.835Z,2.17
2019-03-16T19:22:13.612Z,1.73
2019-03-16T19:27:19.002Z,2.00
2019-03-16T19:32:32.811Z,1.67
2019-03-16T19:37:25.578Z,1.57
2019-03-16T19:42:28.285Z,2.07
2019-03-16T19:47:31.001Z,1.60
2019-03-16T19:52:33.733Z,1.97
2019-03-16T19:57:36.646Z,2.10
2019-03-16T20:02:49.807Z,1.70
2019-03-16T20:07:44.932Z,1.60
2019-03-16T20:12:47.658Z,2.03
2019-03-16T20:17:50.390Z,1.70
2019-03-16T20:22:53.184Z,1.83
2019-03-16T20:27:56.131Z,1.80
2019-03-16T20:33:03.921Z,1.90
2019-03-16T20:38:03.452Z,2.10
2019-03-16T20:43:06.163Z,1.63
2019-03-16T20:48:08.862Z,1.90
2019-03-16T20:53:11.555Z,1.77
2019-03-16T20:58:14.281Z,1.97
2019-03-16T21:03:16.993Z,2.20
2019-03-16T21:08:19.698Z,2.40
2019-03-16T21:13:22.435Z,2.00
2019-03-16T21:18:25.224Z,2.43
2019-03-16T21:23:27.954Z,2.50
2019-03-16T21:28:30.646Z,1.83
2019-03-16T21:33:33.354Z,2.27
2019-03-16T21:38:36.053Z,2.70
2019-03-16T21:43:38.749Z,2.13
2019-03-16T21:48:41.461Z,2.70
2019-03-16T21:53:44.164Z,2.10
2019-03-16T21:58:46.873Z,2.53
2019-03-16T22:03:49.601Z,2.80
2019-03-16T22:08:52.314Z,2.23
2019-03-16T22:13:55.012Z,2.80
2019-03-16T22:18:57.710Z,2.50
2019-03-16T22:24:00.437Z,2.77
2019-03-16T22:29:03.161Z,2.30
2019-03-16T22:34:05.943Z,2.30
2019-03-16T22:39:08.648Z,2.60
2019-03-16T22:44:11.355Z,2.50
2019-03-16T22:49:14.085Z,2.17
2019-03-16T22:54:19.124Z,2.67
2019-03-16T22:59:21.446Z,2.37
2019-03-16T23:04:24.166Z,2.67
2019-03-16T23:09:26.878Z,1.80
2019-03-16T23:14:29.586Z,2.17
2019-03-16T23:19:32.530Z,2.00
2019-03-16T23:24:35.219Z,2.47
2019-03-16T23:29:37.920Z,2.63
2019-03-16T23:34:40.630Z,2.33
2019-03-16T23:39:43.328Z,2.50
2019-03-16T23:44:46.020Z,2.53
2019-03-16T23:49:48.724Z,2.00
2019-03-16T23:54:51.451Z,2.63
2019-03-16T23:59:54.157Z,2.77
